sensor_id;sensor_type;location;lat;lon;timestamp;pressure;altitude;pressure_sealevel;temperature
27986;BMP280;15453;53.692;10.168;2023-08-17T00:01:48;101888.72;;;23.16
27986;BMP280;15453;53.692;10.168;2023-08-17T00:04:13;101904.63;;;23.15
27986;BMP280;15453;53.692;10.168;2023-08-17T00:06:39;101900.47;;;23.13
27986;BMP280;15453;53.692;10.168;2023-08-17T00:09:04;101894.38;;;23.11
27986;BMP280;15453;53.692;10.168;2023-08-17T00:11:30;101895.78;;;23.08
27986;BMP280;15453;53.692;10.168;2023-08-17T00:13:55;101884.09;;;23.06
27986;BMP280;15453;53.692;10.168;2023-08-17T00:16:20;101892.78;;;23.05
27986;BMP280;15453;53.692;10.168;2023-08-17T00:18:47;101883.06;;;23.02
27986;BMP280;15453;53.692;10.168;2023-08-17T00:21:13;101890.09;;;23.00
27986;BMP280;15453;53.692;10.168;2023-08-17T00:23:38;101885.41;;;22.95
27986;BMP280;15453;53.692;10.168;2023-08-17T00:26:03;101894.41;;;22.92
27986;BMP280;15453;53.692;10.168;2023-08-17T00:28:29;101894.41;;;22.92
27986;BMP280;15453;53.692;10.168;2023-08-17T00:30:54;101889.72;;;22.88
27986;BMP280;15453;53.692;10.168;2023-08-17T00:33:19;101881.63;;;22.86
27986;BMP280;15453;53.692;10.168;2023-08-17T00:35:44;101881.63;;;22.86
27986;BMP280;15453;53.692;10.168;2023-08-17T00:38:11;101881.72;;;22.81
27986;BMP280;15453;53.692;10.168;2023-08-17T00:40:36;101888.47;;;22.80
27986;BMP280;15453;53.692;10.168;2023-08-17T00:43:01;101888.47;;;22.80
27986;BMP280;15453;53.692;10.168;2023-08-17T00:45:27;101882.41;;;22.73
27986;BMP280;15453;53.692;10.168;2023-08-17T00:47:56;101869.59;;;22.72
27986;BMP280;15453;53.692;10.168;2023-08-17T00:50:23;101877.13;;;22.72
27986;BMP280;15453;53.692;10.168;2023-08-17T00:52:48;101872.38;;;22.72
27986;BMP280;15453;53.692;10.168;2023-08-17T00:55:14;101872.38;;;22.72
27986;BMP280;15453;53.692;10.168;2023-08-17T00:57:40;101864.09;;;22.67
27986;BMP280;15453;53.692;10.168;2023-08-17T01:00:06;101860.75;;;22.65
27986;BMP280;15453;53.692;10.168;2023-08-17T01:02:33;101849.88;;;22.64
27986;BMP280;15453;53.692;10.168;2023-08-17T01:04:58;101857.44;;;22.63
27986;BMP280;15453;53.692;10.168;2023-08-17T01:07:24;101846.88;;;22.60
27986;BMP280;15453;53.692;10.168;2023-08-17T01:09:49;101861.97;;;22.59
27986;BMP280;15453;53.692;10.168;2023-08-17T01:12:21;101855.03;;;22.57
27986;BMP280;15453;53.692;10.168;2023-08-17T01:15:10;101841.66;;;22.54
27986;BMP280;15453;53.692;10.168;2023-08-17T01:17:43;101839.75;;;22.49
27986;BMP280;15453;53.692;10.168;2023-08-17T01:20:10;101838.09;;;22.48
27986;BMP280;15453;53.692;10.168;2023-08-17T01:22:38;101839.25;;;22.47
27986;BMP280;15453;53.692;10.168;2023-08-17T01:25:06;101839.25;;;22.47
27986;BMP280;15453;53.692;10.168;2023-08-17T01:27:43;101820.88;;;22.41
27986;BMP280;15453;53.692;10.168;2023-08-17T01:30:10;101823.44;;;22.38
27986;BMP280;15453;53.692;10.168;2023-08-17T01:32:40;101817.34;;;22.36
27986;BMP280;15453;53.692;10.168;2023-08-17T01:35:30;101815.97;;;22.33
27986;BMP280;15453;53.692;10.168;2023-08-17T01:37:59;101826.63;;;22.31
27986;BMP280;15453;53.692;10.168;2023-08-17T01:40:31;101826.63;;;22.31
27986;BMP280;15453;53.692;10.168;2023-08-17T01:42:58;101829.47;;;22.26
27986;BMP280;15453;53.692;10.168;2023-08-17T01:45:24;101840.09;;;22.24
27986;BMP280;15453;53.692;10.168;2023-08-17T01:47:49;101854.59;;;22.26
27986;BMP280;15453;53.692;10.168;2023-08-17T01:50:15;101854.59;;;22.26
27986;BMP280;15453;53.692;10.168;2023-08-17T01:52:40;101850.44;;;22.24
27986;BMP280;15453;53.692;10.168;2023-08-17T01:55:05;101839.59;;;22.22
27986;BMP280;15453;53.692;10.168;2023-08-17T01:57:31;101854.31;;;22.28
27986;BMP280;15453;53.692;10.168;2023-08-17T01:59:56;101853.47;;;22.27
27986;BMP280;15453;53.692;10.168;2023-08-17T02:02:21;101859.59;;;22.29
27986;BMP280;15453;53.692;10.168;2023-08-17T02:04:47;101859.59;;;22.29
27986;BMP280;15453;53.692;10.168;2023-08-17T02:07:12;101857.91;;;22.28
27986;BMP280;15453;53.692;10.168;2023-08-17T02:09:38;101853.47;;;22.27
27986;BMP280;15453;53.692;10.168;2023-08-17T02:12:03;101856.25;;;22.27
27986;BMP280;15453;53.692;10.168;2023-08-17T02:14:28;101848.44;;;22.29
27986;BMP280;15453;53.692;10.168;2023-08-17T02:16:54;101858.75;;;22.29
27986;BMP280;15453;53.692;10.168;2023-08-17T02:19:19;101852.03;;;22.30
27986;BMP280;15453;53.692;10.168;2023-08-17T02:21:44;101860.41;;;22.30
27986;BMP280;15453;53.692;10.168;2023-08-17T02:24:10;101857.63;;;22.30
27986;BMP280;15453;53.692;10.168;2023-08-17T02:26:35;101855.97;;;22.29
27986;BMP280;15453;53.692;10.168;2023-08-17T02:29:01;101849.78;;;22.32
27986;BMP280;15453;53.692;10.168;2023-08-17T02:31:26;101849.78;;;22.32
27986;BMP280;15453;53.692;10.168;2023-08-17T02:33:51;101849.25;;;22.30
27986;BMP280;15453;53.692;10.168;2023-08-17T02:36:16;101853.38;;;22.32
27986;BMP280;15453;53.692;10.168;2023-08-17T02:38:42;101853.38;;;22.32
27986;BMP280;15453;53.692;10.168;2023-08-17T02:41:07;101844.19;;;22.32
27986;BMP280;15453;53.692;10.168;2023-08-17T02:43:32;101844.19;;;22.32
27986;BMP280;15453;53.692;10.168;2023-08-17T02:45:58;101834.78;;;22.28
27986;BMP280;15453;53.692;10.168;2023-08-17T02:48:24;101826.69;;;22.26
27986;BMP280;15453;53.692;10.168;2023-08-17T02:50:50;101838.16;;;22.25
27986;BMP280;15453;53.692;10.168;2023-08-17T02:53:15;101829.22;;;22.23
27986;BMP280;15453;53.692;10.168;2023-08-17T02:55:40;101835.44;;;22.20
27986;BMP280;15453;53.692;10.168;2023-08-17T02:58:05;101832.94;;;22.18
27986;BMP280;15453;53.692;10.168;2023-08-17T03:00:30;101831.28;;;22.17
27986;BMP280;15453;53.692;10.168;2023-08-17T03:02:56;101823.22;;;22.16
27986;BMP280;15453;53.692;10.168;2023-08-17T03:05:21;101821.84;;;22.13
27986;BMP280;15453;53.692;10.168;2023-08-17T03:07:46;101832.19;;;22.13
27986;BMP280;15453;53.692;10.168;2023-08-17T03:10:11;101828.53;;;22.12
27986;BMP280;15453;53.692;10.168;2023-08-17T03:12:38;101819.66;;;22.10
27986;BMP280;15453;53.692;10.168;2023-08-17T03:15:05;101828.03;;;22.10
27986;BMP280;15453;53.692;10.168;2023-08-17T03:17:30;101839.72;;;22.12
27986;BMP280;15453;53.692;10.168;2023-08-17T03:19:56;101839.72;;;22.12
27986;BMP280;15453;53.692;10.168;2023-08-17T03:22:24;101825.03;;;22.07
27986;BMP280;15453;53.692;10.168;2023-08-17T03:24:49;101816.94;;;22.05
27986;BMP280;15453;53.692;10.168;2023-08-17T03:27:14;101821.69;;;22.04
27986;BMP280;15453;53.692;10.168;2023-08-17T03:29:40;101822.53;;;22.05
27986;BMP280;15453;53.692;10.168;2023-08-17T03:32:05;101826.66;;;22.08
27986;BMP280;15453;53.692;10.168;2023-08-17T03:34:30;101826.66;;;22.08
27986;BMP280;15453;53.692;10.168;2023-08-17T03:36:55;101830.34;;;22.03
27986;BMP280;15453;53.692;10.168;2023-08-17T03:39:21;101823.13;;;22.02
27986;BMP280;15453;53.692;10.168;2023-08-17T03:41:46;101825.38;;;22.00
27986;BMP280;15453;53.692;10.168;2023-08-17T03:44:11;101838.50;;;21.99
27986;BMP280;15453;53.692;10.168;2023-08-17T03:46:38;101843.78;;;22.01
27986;BMP280;15453;53.692;10.168;2023-08-17T03:49:04;101843.78;;;22.01
27986;BMP280;15453;53.692;10.168;2023-08-17T03:51:29;101838.28;;;21.96
27986;BMP280;15453;53.692;10.168;2023-08-17T03:53:54;101831.56;;;21.97
27986;BMP280;15453;53.692;10.168;2023-08-17T03:56:19;101831.56;;;21.97
27986;BMP280;15453;53.692;10.168;2023-08-17T03:58:45;101837.44;;;21.95
27986;BMP280;15453;53.692;10.168;2023-08-17T04:01:10;101837.44;;;21.95
27986;BMP280;15453;53.692;10.168;2023-08-17T04:03:36;101823.25;;;21.92
27986;BMP280;15453;53.692;10.168;2023-08-17T04:06:05;101817.97;;;21.90
27986;BMP280;15453;53.692;10.168;2023-08-17T04:08:31;101829.44;;;21.89
27986;BMP280;15453;53.692;10.168;2023-08-17T04:10:56;101821.91;;;21.89
27986;BMP280;15453;53.692;10.168;2023-08-17T04:13:22;101824.97;;;21.88
27986;BMP280;15453;53.692;10.168;2023-08-17T04:15:47;101837.78;;;21.89
27986;BMP280;15453;53.692;10.168;2023-08-17T04:18:12;101829.72;;;21.87
27986;BMP280;15453;53.692;10.168;2023-08-17T04:20:37;101826.09;;;21.87
27986;BMP280;15453;53.692;10.168;2023-08-17T04:23:03;101828.88;;;21.87
27986;BMP280;15453;53.692;10.168;2023-08-17T04:25:28;101835.31;;;21.87
27986;BMP280;15453;53.692;10.168;2023-08-17T04:27:54;101829.72;;;21.87
27986;BMP280;15453;53.692;10.168;2023-08-17T04:30:19;101834.47;;;21.87
27986;BMP280;15453;53.692;10.168;2023-08-17T04:32:44;101840.59;;;21.89
27986;BMP280;15453;53.692;10.168;2023-08-17T04:35:15;101827.78;;;21.88
27986;BMP280;15453;53.692;10.168;2023-08-17T04:37:40;101827.78;;;21.88
27986;BMP280;15453;53.692;10.168;2023-08-17T04:40:06;101832.28;;;21.84
27986;BMP280;15453;53.692;10.168;2023-08-17T04:42:32;101847.88;;;21.85
27986;BMP280;15453;53.692;10.168;2023-08-17T04:44:57;101847.88;;;21.85
27986;BMP280;15453;53.692;10.168;2023-08-17T04:47:22;101849.84;;;21.84
27986;BMP280;15453;53.692;10.168;2023-08-17T04:49:48;101849.84;;;21.84
27986;BMP280;15453;53.692;10.168;2023-08-17T04:52:13;101844.88;;;21.81
27986;BMP280;15453;53.692;10.168;2023-08-17T04:54:38;101850.97;;;21.83
27986;BMP280;15453;53.692;10.168;2023-08-17T04:57:03;101846.81;;;21.81
27986;BMP280;15453;53.692;10.168;2023-08-17T04:59:30;101857.97;;;21.81
27986;BMP280;15453;53.692;10.168;2023-08-17T05:01:55;101844.53;;;21.83
27986;BMP280;15453;53.692;10.168;2023-08-17T05:04:21;101850.13;;;21.83
27986;BMP280;15453;53.692;10.168;2023-08-17T05:06:46;101856.47;;;21.88
27986;BMP280;15453;53.692;10.168;2023-08-17T05:09:11;101856.47;;;21.88
27986;BMP280;15453;53.692;10.168;2023-08-17T05:11:37;101846.22;;;21.84
27986;BMP280;15453;53.692;10.168;2023-08-17T05:14:02;101870.19;;;21.85
27986;BMP280;15453;53.692;10.168;2023-08-17T05:16:28;101861.84;;;21.85
27986;BMP280;15453;53.692;10.168;2023-08-17T05:18:53;101856.25;;;21.85
27986;BMP280;15453;53.692;10.168;2023-08-17T05:21:18;101870.19;;;21.85
27986;BMP280;15453;53.692;10.168;2023-08-17T05:23:44;101864.63;;;21.85
27986;BMP280;15453;53.692;10.168;2023-08-17T05:26:09;101855.13;;;21.86
27986;BMP280;15453;53.692;10.168;2023-08-17T05:28:34;101857.09;;;21.85
27986;BMP280;15453;53.692;10.168;2023-08-17T05:31:06;101862.97;;;21.84
27986;BMP280;15453;53.692;10.168;2023-08-17T05:33:32;101874.66;;;21.86
27986;BMP280;15453;53.692;10.168;2023-08-17T05:35:57;101883.00;;;21.86
27986;BMP280;15453;53.692;10.168;2023-08-17T05:38:22;101885.00;;;21.85
27986;BMP280;15453;53.692;10.168;2023-08-17T05:40:54;101896.16;;;21.85
27986;BMP280;15453;53.692;10.168;2023-08-17T05:43:19;101903.69;;;21.85
27986;BMP280;15453;53.692;10.168;2023-08-17T05:45:45;101902.53;;;21.86
27986;BMP280;15453;53.692;10.168;2023-08-17T05:48:10;101906.97;;;21.87
27986;BMP280;15453;53.692;10.168;2023-08-17T05:50:35;101912.28;;;21.88
27986;BMP280;15453;53.692;10.168;2023-08-17T05:53:00;101921.47;;;21.89
27986;BMP280;15453;53.692;10.168;2023-08-17T05:55:26;101927.59;;;21.91
27986;BMP280;15453;53.692;10.168;2023-08-17T05:57:51;101936.78;;;21.91
27986;BMP280;15453;53.692;10.168;2023-08-17T06:00:16;101933.72;;;21.93
27986;BMP280;15453;53.692;10.168;2023-08-17T06:02:42;101940.44;;;21.92
27986;BMP280;15453;53.692;10.168;2023-08-17T06:05:07;101946.81;;;21.92
27986;BMP280;15453;53.692;10.168;2023-08-17T06:07:34;101939.59;;;21.91
27986;BMP280;15453;53.692;10.168;2023-08-17T06:10:03;101939.59;;;21.91
27986;BMP280;15453;53.692;10.168;2023-08-17T06:12:29;101927.34;;;21.87
27986;BMP280;15453;53.692;10.168;2023-08-17T06:14:54;101925.69;;;21.86
27986;BMP280;15453;53.692;10.168;2023-08-17T06:17:19;101918.47;;;21.85
27986;BMP280;15453;53.692;10.168;2023-08-17T06:19:44;101914.84;;;21.85
27986;BMP280;15453;53.692;10.168;2023-08-17T06:22:10;101915.13;;;21.83
27986;BMP280;15453;53.692;10.168;2023-08-17T06:24:35;101918.19;;;21.82
27986;BMP280;15453;53.692;10.168;2023-08-17T06:27:00;101922.97;;;21.81
27986;BMP280;15453;53.692;10.168;2023-08-17T06:29:25;101928.56;;;21.81
27986;BMP280;15453;53.692;10.168;2023-08-17T06:31:50;101928.56;;;21.81
27986;BMP280;15453;53.692;10.168;2023-08-17T06:34:16;101917.41;;;21.76
27986;BMP280;15453;53.692;10.168;2023-08-17T06:36:41;101925.78;;;21.76
27986;BMP280;15453;53.692;10.168;2023-08-17T06:39:06;101925.78;;;21.76
27986;BMP280;15453;53.692;10.168;2023-08-17T06:41:32;101924.97;;;21.76
27986;BMP280;15453;53.692;10.168;2023-08-17T06:43:57;101924.97;;;21.76
27986;BMP280;15453;53.692;10.168;2023-08-17T06:46:22;101919.13;;;21.72
27986;BMP280;15453;53.692;10.168;2023-08-17T06:48:47;101915.81;;;21.70
27986;BMP280;15453;53.692;10.168;2023-08-17T06:51:13;101917.78;;;21.70
27986;BMP280;15453;53.692;10.168;2023-08-17T06:53:38;101923.59;;;21.68
27986;BMP280;15453;53.692;10.168;2023-08-17T06:56:04;101915.56;;;21.67
27986;BMP280;15453;53.692;10.168;2023-08-17T06:58:29;101913.28;;;21.69
27986;BMP280;15453;53.692;10.168;2023-08-17T07:00:54;101913.28;;;21.69
27986;BMP280;15453;53.692;10.168;2023-08-17T07:03:19;101903.84;;;21.65
27986;BMP280;15453;53.692;10.168;2023-08-17T07:05:45;101902.72;;;21.66
27986;BMP280;15453;53.692;10.168;2023-08-17T07:08:11;101910.28;;;21.65
27986;BMP280;15453;53.692;10.168;2023-08-17T07:10:36;101899.13;;;21.65
27986;BMP280;15453;53.692;10.168;2023-08-17T07:13:01;101914.72;;;21.66
27986;BMP280;15453;53.692;10.168;2023-08-17T07:15:30;101906.63;;;21.70
27986;BMP280;15453;53.692;10.168;2023-08-17T07:17:55;101907.72;;;21.69
27986;BMP280;15453;53.692;10.168;2023-08-17T07:20:21;101907.72;;;21.69
27986;BMP280;15453;53.692;10.168;2023-08-17T07:22:46;101899.13;;;21.65
27986;BMP280;15453;53.692;10.168;2023-08-17T07:25:12;101902.97;;;21.69
27986;BMP280;15453;53.692;10.168;2023-08-17T07:27:37;101902.97;;;21.69
27986;BMP280;15453;53.692;10.168;2023-08-17T07:30:03;101891.28;;;21.67
27986;BMP280;15453;53.692;10.168;2023-08-17T07:32:28;101902.97;;;21.69
27986;BMP280;15453;53.692;10.168;2023-08-17T07:34:53;101897.16;;;21.71
27986;BMP280;15453;53.692;10.168;2023-08-17T07:37:19;101897.16;;;21.71
27986;BMP280;15453;53.692;10.168;2023-08-17T07:39:44;101891.00;;;21.69
27986;BMP280;15453;53.692;10.168;2023-08-17T07:42:10;101886.53;;;21.68
27986;BMP280;15453;53.692;10.168;2023-08-17T07:44:35;101893.78;;;21.69
27986;BMP280;15453;53.692;10.168;2023-08-17T07:47:00;101890.16;;;21.68
27986;BMP280;15453;53.692;10.168;2023-08-17T07:49:28;101897.16;;;21.71
27986;BMP280;15453;53.692;10.168;2023-08-17T07:51:53;101896.00;;;21.72
27986;BMP280;15453;53.692;10.168;2023-08-17T07:54:18;101891.25;;;21.72
27986;BMP280;15453;53.692;10.168;2023-08-17T07:56:44;101897.59;;;21.78
27986;BMP280;15453;53.692;10.168;2023-08-17T07:59:09;101897.59;;;21.78
27986;BMP280;15453;53.692;10.168;2023-08-17T08:01:34;101897.91;;;21.76
27986;BMP280;15453;53.692;10.168;2023-08-17T08:03:59;101884.78;;;21.77
27986;BMP280;15453;53.692;10.168;2023-08-17T08:06:25;101895.66;;;21.78
27986;BMP280;15453;53.692;10.168;2023-08-17T08:08:50;101899.53;;;21.82
27986;BMP280;15453;53.692;10.168;2023-08-17T08:11:15;101899.53;;;21.82
27986;BMP280;15453;53.692;10.168;2023-08-17T08:13:40;101900.66;;;21.81
27986;BMP280;15453;53.692;10.168;2023-08-17T08:16:06;101897.88;;;21.81
27986;BMP280;15453;53.692;10.168;2023-08-17T08:18:31;101901.19;;;21.83
27986;BMP280;15453;53.692;10.168;2023-08-17T08:20:56;101903.69;;;21.85
27986;BMP280;15453;53.692;10.168;2023-08-17T08:23:21;101896.16;;;21.85
27986;BMP280;15453;53.692;10.168;2023-08-17T08:25:47;101900.59;;;21.86
27986;BMP280;15453;53.692;10.168;2023-08-17T08:28:12;101901.38;;;21.92
27986;BMP280;15453;53.692;10.168;2023-08-17T08:30:37;101901.38;;;21.92
27986;BMP280;15453;53.692;10.168;2023-08-17T08:33:02;101896.66;;;21.87
27986;BMP280;15453;53.692;10.168;2023-08-17T08:35:28;101900.81;;;21.90
27986;BMP280;15453;53.692;10.168;2023-08-17T08:37:54;101905.25;;;21.91
27986;BMP280;15453;53.692;10.168;2023-08-17T08:40:27;101901.38;;;21.92
27986;BMP280;15453;53.692;10.168;2023-08-17T08:42:52;101904.97;;;21.92
27986;BMP280;15453;53.692;10.168;2023-08-17T08:45:17;101905.22;;;21.96
27986;BMP280;15453;53.692;10.168;2023-08-17T08:47:44;101893.22;;;21.95
27986;BMP280;15453;53.692;10.168;2023-08-17T08:50:11;101904.09;;;21.97
27986;BMP280;15453;53.692;10.168;2023-08-17T08:52:44;101901.31;;;21.97
27986;BMP280;15453;53.692;10.168;2023-08-17T08:55:18;101897.16;;;21.94
27986;BMP280;15453;53.692;10.168;2023-08-17T08:57:43;101897.75;;;21.91
27986;BMP280;15453;53.692;10.168;2023-08-17T09:00:11;101899.16;;;21.89
27986;BMP280;15453;53.692;10.168;2023-08-17T09:02:37;101900.00;;;21.89
27986;BMP280;15453;53.692;10.168;2023-08-17T09:05:04;101900.00;;;21.89
27986;BMP280;15453;53.692;10.168;2023-08-17T09:07:30;101894.16;;;21.86
27986;BMP280;15453;53.692;10.168;2023-08-17T09:09:56;101895.31;;;21.85
27986;BMP280;15453;53.692;10.168;2023-08-17T09:12:22;101896.97;;;21.86
27986;BMP280;15453;53.692;10.168;2023-08-17T09:14:47;101890.25;;;21.87
27986;BMP280;15453;53.692;10.168;2023-08-17T09:17:12;101892.16;;;21.91
27986;BMP280;15453;53.692;10.168;2023-08-17T09:19:38;101904.63;;;21.99
27986;BMP280;15453;53.692;10.168;2023-08-17T09:22:03;101899.59;;;22.01
27986;BMP280;15453;53.692;10.168;2023-08-17T09:24:35;101899.59;;;22.01
27986;BMP280;15453;53.692;10.168;2023-08-17T09:27:02;101887.88;;;21.99
27986;BMP280;15453;53.692;10.168;2023-08-17T09:29:27;101891.22;;;22.01
27986;BMP280;15453;53.692;10.168;2023-08-17T09:31:53;101900.94;;;22.03
27986;BMP280;15453;53.692;10.168;2023-08-17T09:34:19;101894.53;;;22.03
27986;BMP280;15453;53.692;10.168;2023-08-17T09:36:47;101891.22;;;22.01
27986;BMP280;15453;53.692;10.168;2023-08-17T09:39:12;101907.09;;;22.00
27986;BMP280;15453;53.692;10.168;2023-08-17T09:41:38;101907.09;;;22.00
27986;BMP280;15453;53.692;10.168;2023-08-17T09:44:05;101897.97;;;21.95
27986;BMP280;15453;53.692;10.168;2023-08-17T09:46:31;101896.31;;;21.94
27986;BMP280;15453;53.692;10.168;2023-08-17T09:48:56;101897.75;;;21.91
27986;BMP280;15453;53.692;10.168;2023-08-17T09:51:21;101893.59;;;21.89
27986;BMP280;15453;53.692;10.168;2023-08-17T09:53:51;101889.44;;;21.86
27986;BMP280;15453;53.692;10.168;2023-08-17T09:56:18;101884.16;;;21.85
27986;BMP280;15453;53.692;10.168;2023-08-17T09:58:44;101881.34;;;21.85
27986;BMP280;15453;53.692;10.168;2023-08-17T10:01:10;101883.31;;;21.84
27986;BMP280;15453;53.692;10.168;2023-08-17T10:03:39;101886.09;;;21.84
27986;BMP280;15453;53.692;10.168;2023-08-17T10:06:09;101886.09;;;21.84
27986;BMP280;15453;53.692;10.168;2023-08-17T10:08:47;101878.28;;;21.86
27986;BMP280;15453;53.692;10.168;2023-08-17T10:11:16;101871.84;;;21.86
27986;BMP280;15453;53.692;10.168;2023-08-17T10:13:58;101880.41;;;21.94
27986;BMP280;15453;53.692;10.168;2023-08-17T10:16:28;101880.41;;;21.94
27986;BMP280;15453;53.692;10.168;2023-08-17T10:19:00;101867.28;;;21.95
27986;BMP280;15453;53.692;10.168;2023-08-17T10:21:28;101870.63;;;21.97
27986;BMP280;15453;53.692;10.168;2023-08-17T10:23:57;101870.31;;;21.98
27986;BMP280;15453;53.692;10.168;2023-08-17T10:26:23;101888.66;;;22.04
27986;BMP280;15453;53.692;10.168;2023-08-17T10:28:50;101888.66;;;22.04
27986;BMP280;15453;53.692;10.168;2023-08-17T10:31:16;101886.16;;;22.03
27986;BMP280;15453;53.692;10.168;2023-08-17T10:33:42;101874.19;;;22.02
27986;BMP280;15453;53.692;10.168;2023-08-17T10:36:10;101873.84;;;22.04
27986;BMP280;15453;53.692;10.168;2023-08-17T10:38:36;101875.00;;;22.03
27986;BMP280;15453;53.692;10.168;2023-08-17T10:41:09;101875.00;;;22.03
27986;BMP280;15453;53.692;10.168;2023-08-17T10:43:35;101863.38;;;21.96
27986;BMP280;15453;53.692;10.168;2023-08-17T10:46:17;101863.38;;;21.96
27986;BMP280;15453;53.692;10.168;2023-08-17T10:48:43;101854.75;;;21.92
27986;BMP280;15453;53.692;10.168;2023-08-17T10:51:09;101855.88;;;21.91
27986;BMP280;15453;53.692;10.168;2023-08-17T10:53:38;101853.41;;;21.90
27986;BMP280;15453;53.692;10.168;2023-08-17T10:56:08;101857.31;;;21.89
27986;BMP280;15453;53.692;10.168;2023-08-17T10:58:35;101862.91;;;21.89
27986;BMP280;15453;53.692;10.168;2023-08-17T11:01:00;101848.66;;;21.90
27986;BMP280;15453;53.692;10.168;2023-08-17T11:03:26;101852.25;;;21.91
27986;BMP280;15453;53.692;10.168;2023-08-17T11:05:53;101852.81;;;21.93
27986;BMP280;15453;53.692;10.168;2023-08-17T11:11:11;101848.28;;;21.97
27986;BMP280;15453;53.692;10.168;2023-08-17T11:13:38;101844.00;;;22.04
27986;BMP280;15453;53.692;10.168;2023-08-17T11:16:05;101844.00;;;22.04
27986;BMP280;15453;53.692;10.168;2023-08-17T11:18:31;101839.56;;;22.03
27986;BMP280;15453;53.692;10.168;2023-08-17T11:20:57;101842.06;;;22.05
27986;BMP280;15453;53.692;10.168;2023-08-17T11:23:23;101847.56;;;22.10
27986;BMP280;15453;53.692;10.168;2023-08-17T11:25:49;101847.56;;;22.10
27986;BMP280;15453;53.692;10.168;2023-08-17T11:28:16;101840.91;;;22.06
27986;BMP280;15453;53.692;10.168;2023-08-17T11:30:41;101852.59;;;22.08
27986;BMP280;15453;53.692;10.168;2023-08-17T11:33:07;101852.59;;;22.08
27986;BMP280;15453;53.692;10.168;2023-08-17T11:35:33;101857.44;;;22.02
27986;BMP280;15453;53.692;10.168;2023-08-17T11:37:59;101869.69;;;22.01
27986;BMP280;15453;53.692;10.168;2023-08-17T11:40:25;101874.75;;;21.99
27986;BMP280;15453;53.692;10.168;2023-08-17T11:42:51;101861.09;;;21.98
27986;BMP280;15453;53.692;10.168;2023-08-17T11:45:16;101869.19;;;21.99
27986;BMP280;15453;53.692;10.168;2023-08-17T11:47:42;101869.19;;;21.99
27986;BMP280;15453;53.692;10.168;2023-08-17T11:50:10;101856.97;;;21.95
27986;BMP280;15453;53.692;10.168;2023-08-17T11:52:35;101861.94;;;21.98
27986;BMP280;15453;53.692;10.168;2023-08-17T11:55:08;101857.47;;;21.97
27986;BMP280;15453;53.692;10.168;2023-08-17T11:57:35;101849.09;;;21.97
27986;BMP280;15453;53.692;10.168;2023-08-17T12:00:02;101849.09;;;21.97
27986;BMP280;15453;53.692;10.168;2023-08-17T12:02:29;101872.50;;;22.01
27986;BMP280;15453;53.692;10.168;2023-08-17T12:04:55;101872.50;;;22.01
27986;BMP280;15453;53.692;10.168;2023-08-17T12:07:23;101870.03;;;22.00
27986;BMP280;15453;53.692;10.168;2023-08-17T12:09:49;101884.19;;;22.03
27986;BMP280;15453;53.692;10.168;2023-08-17T12:12:19;101884.19;;;22.03
27986;BMP280;15453;53.692;10.168;2023-08-17T12:14:46;101873.34;;;22.02
27986;BMP280;15453;53.692;10.168;2023-08-17T12:17:15;101870.06;;;21.95
27986;BMP280;15453;53.692;10.168;2023-08-17T12:19:44;101868.81;;;22.06
27986;BMP280;15453;53.692;10.168;2023-08-17T12:22:13;101859.03;;;22.08
27986;BMP280;15453;53.692;10.168;2023-08-17T12:24:38;101849.47;;;22.15
27986;BMP280;15453;53.692;10.168;2023-08-17T12:27:05;101849.47;;;22.15
27986;BMP280;15453;53.692;10.168;2023-08-17T12:29:30;101834.13;;;22.12
27986;BMP280;15453;53.692;10.168;2023-08-17T12:32:02;101824.66;;;22.13
27986;BMP280;15453;53.692;10.168;2023-08-17T12:34:29;101825.25;;;22.10
27986;BMP280;15453;53.692;10.168;2023-08-17T12:36:55;101833.63;;;22.10
27986;BMP280;15453;53.692;10.168;2023-08-17T12:39:20;101833.63;;;22.10
27986;BMP280;15453;53.692;10.168;2023-08-17T12:41:45;101833.69;;;22.05
27986;BMP280;15453;53.692;10.168;2023-08-17T12:44:11;101831.19;;;22.03
27986;BMP280;15453;53.692;10.168;2023-08-17T12:46:40;101844.00;;;22.04
27986;BMP280;15453;53.692;10.168;2023-08-17T12:49:05;101849.59;;;22.04
27986;BMP280;15453;53.692;10.168;2023-08-17T12:51:31;101841.44;;;22.08
27986;BMP280;15453;53.692;10.168;2023-08-17T12:53:56;101850.34;;;22.10
27986;BMP280;15453;53.692;10.168;2023-08-17T12:56:21;101855.78;;;22.20
27986;BMP280;15453;53.692;10.168;2023-08-17T12:58:47;101855.78;;;22.20
27986;BMP280;15453;53.692;10.168;2023-08-17T13:01:12;101856.56;;;22.26
27986;BMP280;15453;53.692;10.168;2023-08-17T13:03:39;101864.34;;;22.29
27986;BMP280;15453;53.692;10.168;2023-08-17T13:06:04;101864.34;;;22.29
27986;BMP280;15453;53.692;10.168;2023-08-17T13:08:29;101853.47;;;22.27
27986;BMP280;15453;53.692;10.168;2023-08-17T13:10:54;101863.75;;;22.32
27986;BMP280;15453;53.692;10.168;2023-08-17T13:13:20;101863.75;;;22.32
27986;BMP280;15453;53.692;10.168;2023-08-17T13:15:45;101859.59;;;22.29
27986;BMP280;15453;53.692;10.168;2023-08-17T13:18:10;101862.91;;;22.31
27986;BMP280;15453;53.692;10.168;2023-08-17T13:20:36;101875.50;;;22.29
27986;BMP280;15453;53.692;10.168;2023-08-17T13:23:02;101887.50;;;22.29
27986;BMP280;15453;53.692;10.168;2023-08-17T13:25:28;101890.88;;;22.26
27986;BMP280;15453;53.692;10.168;2023-08-17T13:27:53;101892.06;;;22.20
27986;BMP280;15453;53.692;10.168;2023-08-17T13:30:18;101866.50;;;22.13
27986;BMP280;15453;53.692;10.168;2023-08-17T13:32:43;101852.06;;;22.06
27986;BMP280;15453;53.692;10.168;2023-08-17T13:35:09;101852.06;;;22.06
27986;BMP280;15453;53.692;10.168;2023-08-17T13:37:36;101851.91;;;21.97
27986;BMP280;15453;53.692;10.168;2023-08-17T13:40:02;101857.03;;;21.90
27986;BMP280;15453;53.692;10.168;2023-08-17T13:42:27;101855.41;;;21.84